SWR87 OTHH-LSZH
Flight info
| Callsign | SWR87 |
|---|---|
| Flight time | N/A |
| Altitude | 38000 |
| Route | TULUB2A/34L TULUB B457 BHR M444 DAVUS L602 GADSI M860 SEPTU DCT VUSEB M860 NINVA UM860 EFFEZ/N0489F400 UM860 ODALI UL852 NEGEM DCT ANASA DCT TADAM DCT PEROT DCT BEDOX DCT DIPSA DCT ERKIR DCT KPT L856 NEGRA |
| Aircraft | A359/H-SDE2E3GHIJ3J4J5LM1ORWXY/LB1D1 |
Departure
| Time | 2026-02-17 14:03 |
|---|---|
| Airport | Hamad International Airport (OTHH) |
Arrival
| Time | N/A |
|---|---|
| Airport | Zürich Airport (LSZH) |
| Time | Latitude | Longitude | Altitude | Speed | Heading |
|---|---|---|---|---|---|
| 2026-02-17 13:59 | 25.26303 | 51.61059 | 26 ft | 17 kts | 162° |
| 2026-02-17 13:59 | 25.26215 | 51.61009 | 26 ft | 16 kts | 242° |
| 2026-02-17 13:59 | 25.26166 | 51.60891 | 31 ft | 18 kts | 247° |
| 2026-02-17 13:59 | 25.26119 | 51.60761 | 26 ft | 19 kts | 249° |
| 2026-02-17 14:00 | 25.26071 | 51.60623 | 26 ft | 20 kts | 249° |
| 2026-02-17 14:00 | 25.26073 | 51.60493 | 27 ft | 14 kts | 306° |
| 2026-02-17 14:00 | 25.26082 | 51.60392 | 28 ft | 14 kts | 255° |
| 2026-02-17 14:00 | 25.26065 | 51.60326 | 29 ft | 3 kts | 269° |
| 2026-02-17 14:01 | 25.26072 | 51.60315 | 29 ft | 1 kts | 305° |
| 2026-02-17 14:01 | 25.26074 | 51.60313 | 27 ft | 0 kts | 305° |
| 2026-02-17 14:01 | 25.26089 | 51.60301 | 29 ft | 5 kts | 328° |
| 2026-02-17 14:01 | 25.26171 | 51.60261 | 29 ft | 36 kts | 337° |
| 2026-02-17 14:02 | 25.26619 | 51.60068 | 29 ft | 100 kts | 338° |
| 2026-02-17 14:02 | 25.27436 | 51.59710 | 27 ft | 152 kts | 338° |
| 2026-02-17 14:02 | 25.28474 | 51.59230 | 489 ft | 158 kts | 339° |
| 2026-02-17 14:03 | 25.30522 | 51.58307 | 1377 ft | 179 kts | 342° |
| 2026-02-17 14:03 | 25.31756 | 51.57776 | 1595 ft | 197 kts | 341° |
| 2026-02-17 14:03 | 25.33065 | 51.57184 | 1736 ft | 208 kts | 337° |
| 2026-02-17 14:03 | 25.34391 | 51.56545 | 1985 ft | 205 kts | 341° |
| 2026-02-17 14:04 | 25.35702 | 51.55965 | 2261 ft | 207 kts | 346° |
| 2026-02-17 14:04 | 25.37064 | 51.55415 | 2511 ft | 210 kts | 345° |
| 2026-02-17 14:04 | 25.38463 | 51.54926 | 2830 ft | 209 kts | 1° |
| 2026-02-17 14:04 | 25.39830 | 51.55255 | 3115 ft | 204 kts | 38° |
| 2026-02-17 14:05 | 25.40690 | 51.56465 | 3360 ft | 205 kts | 77° |
| 2026-02-17 14:05 | 25.40652 | 51.58028 | 3571 ft | 209 kts | 116° |
| 2026-02-17 14:05 | 25.39722 | 51.59253 | 3788 ft | 213 kts | 152° |
| 2026-02-17 14:05 | 25.38366 | 51.59980 | 3905 ft | 221 kts | 161° |
| 2026-02-17 14:06 | 25.36909 | 51.60584 | 4006 ft | 226 kts | 163° |
| 2026-02-17 14:06 | 25.35417 | 51.61152 | 4005 ft | 227 kts | 163° |
| 2026-02-17 14:06 | 25.34054 | 51.61651 | 4002 ft | 227 kts | 163° |
| 2026-02-17 14:07 | 25.31039 | 51.62730 | 3992 ft | 227 kts | 163° |
| 2026-02-17 14:07 | 25.29531 | 51.63267 | 3993 ft | 228 kts | 163° |
| 2026-02-17 14:07 | 25.28022 | 51.63806 | 3993 ft | 228 kts | 162° |
| 2026-02-17 14:07 | 25.26507 | 51.64346 | 3995 ft | 228 kts | 163° |
| 2026-02-17 14:08 | 25.24999 | 51.64882 | 3993 ft | 228 kts | 164° |
| 2026-02-17 14:08 | 25.23490 | 51.65418 | 3993 ft | 227 kts | 163° |
| 2026-02-17 14:08 | 25.22003 | 51.65945 | 3992 ft | 227 kts | 162° |
| 2026-02-17 14:08 | 25.20499 | 51.66476 | 3998 ft | 227 kts | 163° |
| 2026-02-17 14:09 | 25.18996 | 51.67019 | 3993 ft | 229 kts | 163° |
| 2026-02-17 14:09 | 25.17477 | 51.67581 | 3993 ft | 230 kts | 164° |
| 2026-02-17 14:09 | 25.15953 | 51.68141 | 3995 ft | 231 kts | 163° |
| 2026-02-17 14:09 | 25.14427 | 51.68681 | 3999 ft | 229 kts | 167° |
| 2026-02-17 14:10 | 25.12852 | 51.68810 | 4000 ft | 226 kts | 189° |
| 2026-02-17 14:10 | 25.11399 | 51.68198 | 4004 ft | 225 kts | 224° |
| 2026-02-17 14:10 | 25.10562 | 51.66885 | 3897 ft | 205 kts | 258° |
| 2026-02-17 14:11 | 25.11173 | 51.64070 | 3196 ft | 196 kts | 317° |
| 2026-02-17 14:11 | 25.12193 | 51.63059 | 2762 ft | 199 kts | 326° |
| 2026-02-17 14:11 | 25.13305 | 51.62213 | 2518 ft | 185 kts | 332° |
| 2026-02-17 14:11 | 25.14361 | 51.61584 | 2499 ft | 164 kts | 345° |
| 2026-02-17 14:12 | 25.15478 | 51.61629 | 2411 ft | 161 kts | 23° |
| 2026-02-17 14:12 | 25.16321 | 51.62408 | 1980 ft | 164 kts | 59° |
| 2026-02-17 14:12 | 25.16809 | 51.63583 | 1444 ft | 171 kts | 69° |
| 2026-02-17 14:12 | 25.17255 | 51.64751 | 1202 ft | 156 kts | 47° |
| 2026-02-17 14:13 | 25.18157 | 51.65088 | 1062 ft | 136 kts | 343° |
| 2026-02-17 14:13 | 25.18887 | 51.64489 | 976 ft | 131 kts | 314° |
| 2026-02-17 14:13 | 25.19566 | 51.63782 | 875 ft | 137 kts | 320° |
| 2026-02-17 14:13 | 25.20297 | 51.63099 | 862 ft | 138 kts | 327° |
| 2026-02-17 14:14 | 25.21115 | 51.62533 | 895 ft | 139 kts | 342° |
| 2026-02-17 14:14 | 25.22036 | 51.62133 | 797 ft | 145 kts | 354° |
| 2026-02-17 14:14 | 25.22985 | 51.61730 | 642 ft | 145 kts | 345° |
| 2026-02-17 14:15 | 25.24804 | 51.60871 | 265 ft | 140 kts | 342° |
| 2026-02-17 14:15 | 25.25709 | 51.60461 | 51 ft | 142 kts | 346° |
| 2026-02-17 14:15 | 25.26559 | 51.60082 | 30 ft | 134 kts | 348° |
| 2026-02-17 14:15 | 25.27360 | 51.59732 | 30 ft | 116 kts | 351° |
| 2026-02-17 14:16 | 25.27974 | 51.59489 | 28 ft | 62 kts | 335° |
| 2026-02-17 14:16 | 25.28206 | 51.59381 | 27 ft | 29 kts | 337° |
| 2026-02-17 14:16 | 25.28373 | 51.59300 | 29 ft | 25 kts | 338° |
| 2026-02-17 14:16 | 25.28522 | 51.59245 | 28 ft | 20 kts | 4° |
| 2026-02-17 14:17 | 25.28595 | 51.59338 | 27 ft | 15 kts | 76° |
| 2026-02-17 14:17 | 25.28554 | 51.59415 | 27 ft | 11 kts | 150° |
| 2026-02-17 14:17 | 25.28490 | 51.59445 | 27 ft | 9 kts | 159° |
| 2026-02-17 14:17 | 25.28436 | 51.59468 | 27 ft | 8 kts | 159° |
| 2026-02-17 14:18 | 25.28386 | 51.59489 | 27 ft | 7 kts | 159° |
| 2026-02-17 14:18 | 25.28363 | 51.59499 | 27 ft | 0 kts | 159° |